Terminal Aerodrome Forecast
Issued by NWS Burlington, VT

Home | Current Version | Previous Version | Text Only | Print | Product List | Glossary On
Versions: 1 2 3 4 5 6 7 8 9 10 11 12 13 14 15 16 17 18 19 20 21 22
000
FTUS41 KBTV 031902 RRC
TAFBTV

TAF
KBTV 032320Z 0418/0418 19015G25KT P6SM VCSH SCT040 BKN110
      TEMPO 0320/0322 VRB15G35KT 3SM -TSRA BR BKN035CB
     FM040000 19006KT P6SM BKN060
     FM0410000 200007KT P6SM SCT060 BKN120
     FM041600 200008KT P6SM VCSH BKN040=

USA.gov is the U.S. government's official web portal to all federal, state and local government web resources and services.